Time;durP1;ratioP1;P1;durP2;ratioP2;P2;SDS_P1;SDS_P2;PMS_P1;PMS_P2;Temp;Humidity;BMP_temperature;BMP_pressure;BME280_temperature;BME280_humidity;BME280_pressure;Samples;Min_cycle;Max_cycle;Signal;HPM_P1;HPM_P2
2022/07/22 00:00:13;;;;;;;13.10;7.68;;;17.20;99.90;;;;;;4764924;30;20059;-85
2022/07/22 00:03:03;;;;;;;10.80;7.32;;;17.10;99.90;;;;;;4768222;30;20052;-85
2022/07/22 00:05:52;;;;;;;13.15;7.97;;;17.00;99.90;;;;;;4772192;29;20044;-84
2022/07/22 00:08:42;;;;;;;11.15;8.10;;;16.90;99.90;;;;;;4781913;29;20055;-85
2022/07/22 00:11:29;;;;;;;10.10;8.63;;;16.90;99.90;;;;;;4783136;29;20528;-84
2022/07/22 00:14:18;;;;;;;14.23;7.75;;;16.90;99.90;;;;;;4761069;30;20059;-85
2022/07/22 00:17:08;;;;;;;10.48;7.90;;;16.90;99.90;;;;;;4768403;30;20051;-84
2022/07/22 00:19:57;;;;;;;9.70;8.32;;;16.80;99.90;;;;;;4771766;29;20125;-84
2022/07/22 00:22:44;;;;;;;13.32;7.78;;;16.70;99.90;;;;;;4760805;29;20352;-85
2022/07/22 00:25:34;;;;;;;10.55;8.32;;;16.60;99.90;;;;;;4766373;29;20059;-84
2022/07/22 00:28:23;;;;;;;8.95;8.05;;;16.50;99.90;;;;;;4768642;30;20119;-85
2022/07/22 00:31:11;;;;;;;10.15;8.35;;;16.30;1.00;;;;;;4773250;29;20454;-84
2022/07/22 00:34:01;;;;;;;10.95;8.75;;;16.30;1.00;;;;;;4775217;29;20047;-85
2022/07/22 00:36:48;;;;;;;11.35;8.27;;;16.30;1.00;;;;;;4772211;30;20048;-85
2022/07/22 00:39:43;;;;;;;11.43;9.23;;;16.20;1.00;;;;;;4770733;29;20470;-84
2022/07/22 00:42:35;;;;;;;11.07;8.32;;;16.20;1.00;;;;;;4772671;29;20108;-84
2022/07/22 00:45:22;;;;;;;14.00;8.63;;;16.20;1.00;;;;;;4766147;29;20145;-85
2022/07/22 00:48:09;;;;;;;11.20;8.20;;;16.20;1.00;;;;;;4762208;29;20173;-84
2022/07/22 00:50:57;;;;;;;12.10;8.27;;;16.20;1.00;;;;;;4775424;29;20440;-84
2022/07/22 00:53:48;;;;;;;10.65;8.13;;;16.30;1.00;;;;;;4776669;29;20052;-84
2022/07/22 00:56:36;;;;;;;10.38;7.90;;;16.40;1.00;;;;;;4767775;30;20059;-84
2022/07/22 00:59:24;;;;;;;12.88;8.32;;;16.50;1.00;;;;;;4778403;30;20462;-84
2022/07/22 01:02:11;;;;;;;10.13;8.98;;;16.50;1.00;;;;;;4781522;30;20064;-85
2022/07/22 01:05:06;;;;;;;11.15;8.52;;;16.40;1.00;;;;;;4778632;29;20148;-84
2022/07/22 01:07:53;;;;;;;9.93;8.32;;;16.30;1.00;;;;;;4769276;29;20447;-85
2022/07/22 01:10:43;;;;;;;13.32;8.90;;;16.20;1.00;;;;;;4767920;30;20401;-85
2022/07/22 01:13:30;;;;;;;13.80;9.25;;;16.20;1.00;;;;;;4770529;30;20098;-84
2022/07/22 01:16:21;;;;;;;10.70;8.80;;;16.20;1.00;;;;;;4769177;30;20426;-84
2022/07/22 01:19:08;;;;;;;11.75;9.23;;;16.20;1.00;;;;;;4768557;30;20063;-84
2022/07/22 01:22:00;;;;;;;10.25;8.77;;;16.10;1.00;;;;;;4769152;29;20063;-84
2022/07/22 01:24:47;;;;;;;10.43;8.47;;;16.10;22.10;;;;;;4770065;29;20200;-84
2022/07/22 01:27:37;;;;;;;12.40;9.90;;;16.00;99.90;;;;;;4782014;30;20419;-84
2022/07/22 01:30:28;;;;;;;12.48;10.00;;;15.90;99.90;;;;;;4761017;30;20059;-84
2022/07/22 01:33:19;;;;;;;12.73;9.40;;;15.80;99.90;;;;;;4773308;29;20142;-84
2022/07/22 01:36:07;;;;;;;12.05;9.05;;;15.90;99.90;;;;;;4774171;29;20386;-84
2022/07/22 01:38:56;;;;;;;13.32;10.13;;;15.80;99.90;;;;;;4769136;30;20089;-84
2022/07/22 01:41:47;;;;;;;10.73;9.63;;;15.80;99.90;;;;;;4769398;30;20058;-84
2022/07/22 01:44:37;;;;;;;13.45;9.65;;;15.80;99.90;;;;;;4778297;30;20101;-84
2022/07/22 01:47:27;;;;;;;9.95;8.93;;;15.80;99.90;;;;;;4776812;29;20739;-83
2022/07/22 01:50:14;;;;;;;14.55;10.25;;;15.80;99.90;;;;;;4778533;29;20109;-83
2022/07/22 01:53:02;;;;;;;13.07;10.00;;;15.90;99.90;;;;;;4756670;30;20129;-83
2022/07/22 01:55:49;;;;;;;11.50;9.35;;;16.00;99.90;;;;;;4777953;30;20116;-83
2022/07/22 01:58:36;;;;;;;12.60;8.93;;;16.00;99.90;;;;;;4768501;30;20381;-83
2022/07/22 02:01:26;;;;;;;12.45;9.70;;;15.90;99.90;;;;;;4764590;30;20133;-82
2022/07/22 02:04:14;;;;;;;12.07;9.75;;;15.80;99.90;;;;;;4781762;30;20143;-83
2022/07/22 02:07:02;;;;;;;15.35;10.02;;;15.80;99.90;;;;;;4778564;30;20043;-83
2022/07/22 02:09:52;;;;;;;12.65;9.63;;;15.70;99.90;;;;;;4771261;30;20059;-83
2022/07/22 02:12:39;;;;;;;14.57;11.05;;;15.70;99.90;;;;;;4779145;30;20124;-83
2022/07/22 02:15:30;;;;;;;11.93;10.30;;;15.50;99.90;;;;;;4779165;30;20142;-83
2022/07/22 02:18:18;;;;;;;14.35;10.38;;;15.50;99.90;;;;;;4778719;29;20139;-83
2022/07/22 02:21:05;;;;;;;14.32;10.13;;;15.50;1.00;;;;;;4774799;30;20067;-83
2022/07/22 02:23:52;;;;;;;11.95;10.63;;;15.50;16.20;;;;;;4766005;30;20144;-82
2022/07/22 02:26:40;;;;;;;12.32;10.65;;;15.60;1.00;;;;;;4777121;30;20068;-82
2022/07/22 02:29:28;;;;;;;13.15;10.52;;;15.50;1.00;;;;;;4775319;30;20113;-82
2022/07/22 02:32:19;;;;;;;14.30;10.77;;;15.50;1.00;;;;;;4773455;29;20448;-82
2022/07/22 02:35:11;;;;;;;12.77;10.32;;;15.50;1.00;;;;;;4768284;29;20099;-83
2022/07/22 02:38:01;;;;;;;14.48;11.13;;;15.50;1.00;;;;;;4775155;30;20150;-83
2022/07/22 02:40:53;;;;;;;13.48;10.98;;;15.50;1.00;;;;;;4786596;30;20184;-83
2022/07/22 02:43:43;;;;;;;19.45;11.93;;;15.50;99.90;;;;;;4774159;29;20051;-83
2022/07/22 02:46:33;;;;;;;15.20;11.35;;;15.40;99.90;;;;;;4776113;30;20044;-82
2022/07/22 02:49:20;;;;;;;13.40;11.85;;;15.20;99.90;;;;;;4772149;29;20058;-82
2022/07/22 02:52:08;;;;;;;14.18;12.77;;;15.30;1.00;;;;;;4775992;29;20109;-82
2022/07/22 02:54:55;;;;;;;17.52;11.82;;;15.30;97.40;;;;;;4780629;29;20517;-82
2022/07/22 02:57:45;;;;;;;15.38;11.38;;;15.30;1.00;;;;;;4760572;30;20486;-82
2022/07/22 03:00:33;;;;;;;13.00;11.50;;;15.30;92.50;;;;;;4775161;29;20125;-82
2022/07/22 03:03:21;;;;;;;16.55;12.13;;;15.30;99.90;;;;;;4756368;30;20121;-82
2022/07/22 03:06:08;;;;;;;15.27;12.73;;;15.30;99.90;;;;;;4762903;30;20477;-82
2022/07/22 03:08:56;;;;;;;19.95;12.98;;;15.30;99.90;;;;;;4771704;30;20189;-82
2022/07/22 03:11:44;;;;;;;20.40;12.32;;;15.30;99.90;;;;;;4771905;30;20359;-83
2022/07/22 03:14:31;;;;;;;16.20;13.25;;;15.30;1.00;;;;;;4771863;30;20062;-82
2022/07/22 03:17:18;;;;;;;20.17;13.15;;;15.30;99.90;;;;;;4760559;30;20102;-82
2022/07/22 03:20:09;;;;;;;14.82;11.38;;;15.30;1.00;;;;;;4774075;29;20462;-83
2022/07/22 03:22:56;;;;;;;16.40;12.50;;;15.30;1.00;;;;;;4772723;30;20059;-83
2022/07/22 03:25:46;;;;;;;15.02;13.30;;;15.30;1.00;;;;;;4766885;30;20059;-82
2022/07/22 03:28:33;;;;;;;14.98;12.90;;;15.30;99.90;;;;;;4765520;30;20146;-81
2022/07/22 03:31:20;;;;;;;15.65;12.25;;;15.30;99.90;;;;;;4766472;30;20047;-82
2022/07/22 03:34:09;;;;;;;17.80;13.40;;;15.30;99.90;;;;;;4790175;30;20051;-82
2022/07/22 03:36:57;;;;;;;19.20;13.70;;;15.30;1.00;;;;;;4772640;30;20117;-82
2022/07/22 03:39:48;;;;;;;17.85;13.95;;;15.20;1.00;;;;;;4773302;29;20123;-82
2022/07/22 03:42:36;;;;;;;21.33;13.57;;;15.10;92.50;;;;;;4775415;29;20052;-82
2022/07/22 03:45:28;;;;;;;;;;;15.10;99.90;;;;;;4774816;30;20066;-82
2022/07/22 03:48:15;;;;;;;19.55;13.30;;;15.10;99.90;;;;;;4764181;30;19925;-82
2022/07/22 03:51:03;;;;;;;16.75;13.85;;;15.10;99.90;;;;;;4770450;29;20055;-82
2022/07/22 03:53:50;;;;;;;16.75;12.88;;;15.10;39.60;;;;;;4773562;30;20181;-82
2022/07/22 03:56:40;;;;;;;15.57;13.88;;;15.10;1.00;;;;;;4773483;29;20047;-82
2022/07/22 03:59:27;;;;;;;17.00;13.18;;;15.10;1.00;;;;;;4772396;29;20590;-80
2022/07/22 04:02:19;;;;;;;18.88;13.50;;;15.10;99.90;;;;;;4775872;30;20059;-82
2022/07/22 04:05:07;;;;;;;18.85;14.32;;;15.10;99.90;;;;;;4771362;29;20101;-81
2022/07/22 04:07:56;;;;;;;20.58;14.68;;;15.00;99.90;;;;;;4774871;30;20058;-81
2022/07/22 04:10:44;;;;;;;16.48;13.80;;;15.00;31.70;;;;;;4770313;30;20132;-81
2022/07/22 04:13:31;;;;;;;20.08;14.63;;;15.00;90.60;;;;;;4782290;30;20371;-81
2022/07/22 04:16:21;;;;;;;18.55;14.05;;;15.00;60.50;;;;;;4768225;30;20062;-81
2022/07/22 04:19:09;;;;;;;22.60;14.77;;;15.00;99.90;;;;;;4765542;30;20067;-81
2022/07/22 04:21:56;;;;;;;16.48;13.95;;;15.10;99.90;;;;;;4770618;30;20056;-81
2022/07/22 04:24:46;;;;;;;25.10;15.50;;;15.10;99.90;;;;;;4770441;30;20051;-81
2022/07/22 04:27:35;;;;;;;16.52;13.60;;;15.20;99.90;;;;;;4769865;30;20087;-82
2022/07/22 04:30:23;;;;;;;20.10;14.80;;;15.20;20.20;;;;;;4763137;30;20117;-81
2022/07/22 04:33:12;;;;;;;19.45;14.65;;;15.30;1.00;;;;;;4773430;29;20108;-81
2022/07/22 04:35:59;;;;;;;21.80;14.77;;;15.30;1.00;;;;;;4782138;30;20074;-82
2022/07/22 04:38:54;;;;;;;21.73;14.93;;;15.40;1.00;;;;;;4770876;30;20397;-82
2022/07/22 04:41:41;;;;;;;20.58;15.55;;;15.40;1.00;;;;;;4781192;29;20036;-81
2022/07/22 04:44:29;;;;;;;19.95;14.90;;;15.40;99.90;;;;;;4771878;29;20059;-82
2022/07/22 04:47:16;;;;;;;20.10;14.80;;;15.50;99.90;;;;;;4787157;29;20055;-81
2022/07/22 04:50:04;;;;;;;18.55;14.80;;;15.60;99.90;;;;;;4770754;30;20059;-82
2022/07/22 04:52:51;;;;;;;21.63;15.00;;;15.60;99.90;;;;;;4762037;30;20550;-82
2022/07/22 04:55:38;;;;;;;21.70;15.68;;;15.60;99.90;;;;;;4769848;30;20048;-83
2022/07/22 04:58:29;;;;;;;24.73;15.23;;;15.70;97.80;;;;;;4782731;29;20362;-82
2022/07/22 05:01:16;;;;;;;17.42;13.85;;;15.80;70.30;;;;;;4768070;29;20173;-82
2022/07/22 05:04:04;;;;;;;20.33;13.50;;;15.80;22.90;;;;;;4789873;29;20055;-83
2022/07/22 05:06:51;;;;;;;20.70;15.40;;;15.80;1.00;;;;;;4783769;30;20118;-82
2022/07/22 05:09:38;;;;;;;19.80;15.27;;;15.90;1.00;;;;;;4775177;29;20059;-82
2022/07/22 05:12:25;;;;;;;21.77;16.00;;;16.00;1.00;;;;;;4770082;30;20064;-83
2022/07/22 05:15:13;;;;;;;19.45;15.68;;;16.10;1.00;;;;;;4773172;30;20466;-82
2022/07/22 05:18:00;;;;;;;24.15;15.23;;;16.10;1.00;;;;;;4774948;30;20097;-82
2022/07/22 05:20:48;;;;;;;18.90;14.57;;;16.20;1.00;;;;;;4775375;29;20051;-83
2022/07/22 05:23:35;;;;;;;19.25;14.95;;;16.30;1.00;;;;;;4778387;30;20332;-83
2022/07/22 05:26:28;;;;;;;18.77;14.57;;;16.50;1.00;;;;;;4776096;30;20059;-83
2022/07/22 05:29:15;;;;;;;21.52;15.50;;;16.60;1.00;;;;;;4775756;30;20066;-82
2022/07/22 05:32:03;;;;;;;20.80;14.52;;;16.70;1.00;;;;;;4765732;30;20129;-82
2022/07/22 05:34:50;;;;;;;19.95;14.98;;;16.80;1.00;;;;;;4779219;29;20339;-82
2022/07/22 05:37:37;;;;;;;21.95;14.15;;;16.90;1.00;;;;;;4778587;30;20068;-82
2022/07/22 05:40:24;;;;;;;21.92;13.02;;;16.90;1.00;;;;;;4765674;29;20056;-82
2022/07/22 05:43:12;;;;;;;16.02;13.48;;;17.00;99.90;;;;;;4776204;29;20055;-82
2022/07/22 05:45:59;;;;;;;17.58;13.23;;;17.10;99.90;;;;;;4766647;29;20493;-82
2022/07/22 05:48:46;;;;;;;17.25;12.98;;;17.20;99.90;;;;;;4778157;29;20052;-82
2022/07/22 05:51:34;;;;;;;15.93;13.65;;;17.20;99.90;;;;;;4765598;30;20450;-82
2022/07/22 05:54:21;;;;;;;17.23;13.82;;;17.30;99.90;;;;;;4763241;29;20070;-83
2022/07/22 05:57:09;;;;;;;15.07;12.60;;;17.50;99.90;;;;;;4774564;29;20079;-82
2022/07/22 05:59:57;;;;;;;17.08;12.82;;;17.50;99.90;;;;;;4774791;29;20566;-83
2022/07/22 06:02:44;;;;;;;17.73;12.85;;;17.60;99.90;;;;;;4773977;29;20109;-81
2022/07/22 06:05:31;;;;;;;17.05;12.40;;;17.70;99.90;;;;;;4785743;30;20059;-82
2022/07/22 06:08:24;;;;;;;19.15;12.25;;;17.80;99.90;;;;;;4786954;29;20056;-82
2022/07/22 06:11:12;;;;;;;14.63;12.10;;;17.90;99.90;;;;;;4773729;29;20059;-82
2022/07/22 06:14:00;;;;;;;17.65;13.05;;;18.00;99.90;;;;;;4778901;29;20051;-82
2022/07/22 06:16:47;;;;;;;14.60;12.00;;;18.10;99.90;;;;;;4780140;29;20111;-82
2022/07/22 06:19:34;;;;;;;17.60;12.23;;;18.20;99.90;;;;;;4778304;30;20047;-82
2022/07/22 06:22:22;;;;;;;14.52;12.05;;;18.30;44.10;;;;;;4772426;30;20067;-82
2022/07/22 06:25:09;;;;;;;18.75;11.88;;;18.40;28.60;;;;;;4766017;30;20058;-81
2022/07/22 06:28:16;;;;;;;18.83;12.23;;;18.40;25.80;;;;;;4772582;30;20060;-81
2022/07/22 06:31:04;;;;;;;18.45;13.63;;;18.40;3.10;;;;;;4774109;29;20283;-81
2022/07/22 06:33:56;;;;;;;13.65;12.18;;;18.40;1.00;;;;;;4773874;29;20455;-81
2022/07/22 06:36:45;;;;;;;18.43;13.03;;;18.50;4.00;;;;;;4766512;30;20070;-80
2022/07/22 06:39:33;;;;;;;15.00;12.70;;;18.70;1.00;;;;;;4775154;30;20321;-82
2022/07/22 06:42:22;;;;;;;17.15;13.85;;;18.90;1.00;;;;;;4776396;29;20044;-82
2022/07/22 06:45:10;;;;;;;14.73;12.38;;;19.10;1.00;;;;;;4773414;30;20490;-83
2022/07/22 06:47:57;;;;;;;15.02;11.75;;;19.20;1.00;;;;;;4774235;30;20406;-82
2022/07/22 06:50:45;;;;;;;18.30;14.23;;;19.30;1.00;;;;;;4778083;29;20062;-82
2022/07/22 06:53:39;;;;;;;17.73;12.00;;;19.50;1.00;;;;;;4789656;29;20062;-82
2022/07/22 06:56:31;;;;;;;14.38;11.13;;;19.70;1.00;;;;;;4764677;29;20108;-82
2022/07/22 06:59:18;;;;;;;14.88;12.10;;;20.00;1.00;;;;;;4764884;30;20043;-81
2022/07/22 07:02:05;;;;;;;16.45;10.52;;;20.40;99.90;;;;;;4776356;29;20160;-82
2022/07/22 07:04:57;;;;;;;12.50;10.13;;;20.70;99.90;;;;;;4768430;30;20056;-83
2022/07/22 07:07:44;;;;;;;13.63;9.95;;;21.10;99.90;;;;;;4778462;29;20113;-83
2022/07/22 07:10:34;;;;;;;16.08;10.70;;;21.70;99.90;;;;;;4784666;29;20047;-83
2022/07/22 07:13:21;;;;;;;13.77;10.98;;;22.00;99.90;;;;;;4773556;30;20395;-83
2022/07/22 07:16:10;;;;;;;12.30;9.55;;;22.30;99.90;;;;;;4773514;30;20478;-82
2022/07/22 07:18:59;;;;;;;13.35;10.30;;;22.60;99.90;;;;;;4763146;30;20462;-83
2022/07/22 07:21:48;;;;;;;12.35;9.57;;;22.80;99.90;;;;;;4769761;29;20072;-82
2022/07/22 07:24:36;;;;;;;11.95;9.95;;;23.00;99.90;;;;;;4775036;29;20130;-82
2022/07/22 07:27:24;;;;;;;13.65;9.00;;;23.40;99.90;;;;;;4765075;30;20055;-82
2022/07/22 07:30:12;;;;;;;15.57;9.50;;;24.00;99.90;;;;;;4773315;29;20052;-83
2022/07/22 07:33:02;;;;;;;12.40;8.85;;;24.30;99.90;;;;;;4772886;29;20084;-84
2022/07/22 07:35:50;;;;;;;12.48;9.35;;;24.50;99.90;;;;;;4777413;29;20047;-83
2022/07/22 07:38:37;;;;;;;11.38;7.93;;;24.70;99.90;;;;;;4771876;30;20062;-84
2022/07/22 07:41:24;;;;;;;13.60;8.20;;;25.20;99.40;;;;;;4784391;29;20089;-81
2022/07/22 07:44:11;;;;;;;10.73;8.38;;;25.70;83.30;;;;;;4771598;30;20043;-83
2022/07/22 07:47:01;;;;;;;9.23;7.97;;;25.70;41.10;;;;;;4778977;29;20052;-83
2022/07/22 07:49:49;;;;;;;10.43;7.97;;;25.90;32.00;;;;;;4767353;30;20467;-82
2022/07/22 07:52:41;;;;;;;11.65;8.38;;;26.00;42.70;;;;;;4760519;29;20055;-81
2022/07/22 07:55:37;;;;;;;9.63;8.60;;;26.60;22.90;;;;;;4769195;30;20048;-83
2022/07/22 07:58:27;;;;;;;8.60;7.20;;;26.50;1.00;;;;;;4765002;30;20047;-81
2022/07/22 08:01:16;;;;;;;12.23;8.05;;;26.20;1.00;;;;;;4762750;30;20048;-81
2022/07/22 08:04:04;;;;;;;10.10;8.02;;;26.40;1.00;;;;;;4786214;29;20048;-81
2022/07/22 08:07:11;;;;;;;10.25;6.95;;;26.70;1.00;;;;;;4779250;30;20109;-81
2022/07/22 08:09:59;;;;;;;9.65;7.57;;;27.20;1.00;;;;;;4777657;29;20052;-82
2022/07/22 08:13:08;;;;;;;10.10;7.53;;;27.80;1.00;;;;;;4771875;29;20152;-81
2022/07/22 08:15:56;;;;;;;10.55;6.40;;;28.30;1.00;;;;;;4775280;30;20059;-81
2022/07/22 08:18:45;;;;;;;8.80;6.90;;;28.30;1.00;;;;;;4770631;30;20052;-82
2022/07/22 08:21:35;;;;;;;8.90;6.70;;;28.50;1.00;;;;;;4772689;29;20047;-81
2022/07/22 08:24:22;;;;;;;12.57;6.88;;;28.70;1.00;;;;;;4776491;29;20458;-80
2022/07/22 08:27:10;;;;;;;9.63;7.40;;;28.90;1.00;;;;;;4761219;29;20152;-80
2022/07/22 08:30:04;;;;;;;10.90;7.60;;;28.50;1.00;;;;;;4759929;29;20059;-81
2022/07/22 08:32:54;;;;;;;14.10;8.20;;;27.90;1.00;;;;;;4773489;29;20200;-83
2022/07/22 08:35:41;;;;;;;10.68;7.63;;;28.30;1.00;;;;;;4771777;29;20051;-81
2022/07/22 08:38:30;;;;;;;11.45;6.57;;;28.60;1.00;;;;;;4775890;30;20055;-83
2022/07/22 08:41:18;;;;;;;13.32;7.47;;;29.20;1.00;;;;;;4782852;29;20443;-83
2022/07/22 08:44:08;;;;;;;7.88;6.55;;;29.60;1.00;;;;;;4770492;30;20377;-82
2022/07/22 08:46:56;;;;;;;8.77;6.05;;;29.90;1.00;;;;;;4768252;30;20059;-81
2022/07/22 08:49:50;;;;;;;10.02;7.07;;;30.10;1.00;;;;;;4770422;30;20070;-81
2022/07/22 08:52:40;;;;;;;8.88;6.18;;;29.90;1.00;;;;;;4770756;29;20063;-82
2022/07/22 08:55:29;;;;;;;10.20;6.65;;;30.30;1.00;;;;;;4772130;29;20157;-83
2022/07/22 08:58:18;;;;;;;8.38;6.18;;;30.40;1.00;;;;;;4770841;29;20058;-82
2022/07/22 09:01:11;;;;;;;7.45;5.28;;;30.50;1.00;;;;;;4771785;29;20059;-82
2022/07/22 09:03:59;;;;;;;7.00;6.00;;;31.30;1.00;;;;;;4780869;29;20047;-82
2022/07/22 09:06:51;;;;;;;10.10;5.88;;;31.10;1.00;;;;;;4777017;30;20056;-83
2022/07/22 09:09:38;;;;;;;8.55;5.97;;;31.10;1.00;;;;;;4787172;29;20348;-81
2022/07/22 09:12:32;;;;;;;7.80;6.07;;;31.10;1.00;;;;;;4781534;30;20048;-82
2022/07/22 09:15:26;;;;;;;9.10;6.10;;;31.00;1.00;;;;;;4791148;29;20063;-83
2022/07/22 09:18:13;;;;;;;9.60;6.30;;;31.00;1.00;;;;;;4796835;29;20052;-82
2022/07/22 09:21:01;;;;;;;7.47;6.32;;;31.30;1.00;;;;;;4762934;30;20049;-82
2022/07/22 09:23:48;;;;;;;7.88;6.75;;;31.70;1.00;;;;;;4763518;30;20109;-81
2022/07/22 09:26:38;;;;;;;8.77;5.68;;;31.20;1.00;;;;;;4770362;30;20066;-83
2022/07/22 09:29:25;;;;;;;7.68;6.57;;;31.20;1.00;;;;;;4767037;30;20399;-82
2022/07/22 09:32:23;;;;;;;7.72;6.07;;;31.80;1.00;;;;;;4773183;29;20506;-82
2022/07/22 09:35:12;;;;;;;6.07;5.45;;;31.70;1.00;;;;;;4775388;30;20465;-82
2022/07/22 09:38:05;;;;;;;6.63;5.63;;;32.30;1.00;;;;;;4772598;29;20063;-83
2022/07/22 09:40:53;;;;;;;9.82;6.10;;;32.80;1.00;;;;;;4775081;30;20126;-83
2022/07/22 09:43:41;;;;;;;8.15;6.10;;;32.10;1.00;;;;;;4770501;30;20051;-83
2022/07/22 09:46:40;;;;;;;9.95;6.50;;;32.00;1.00;;;;;;4776840;30;20485;-80
2022/07/22 09:49:36;;;;;;;7.72;6.05;;;32.30;1.00;;;;;;4778725;29;20055;-81
2022/07/22 09:52:23;;;;;;;9.13;5.30;;;32.50;1.00;;;;;;4778795;30;20659;-82
2022/07/22 09:55:13;;;;;;;7.50;4.90;;;32.80;1.00;;;;;;4783419;30;20072;-84
2022/07/22 09:58:00;;;;;;;7.60;5.72;;;32.60;1.00;;;;;;4771900;30;20051;-83
2022/07/22 10:00:49;;;;;;;7.72;5.22;;;32.30;1.00;;;;;;4773134;30;20084;-83
2022/07/22 10:03:40;;;;;;;7.13;5.07;;;33.00;1.00;;;;;;4783256;29;20054;-83
2022/07/22 10:06:28;;;;;;;6.18;4.93;;;33.80;1.00;;;;;;4774294;29;20067;-83
2022/07/22 10:09:17;;;;;;;8.38;5.68;;;34.40;1.00;;;;;;4771523;30;20135;-84
2022/07/22 10:12:07;;;;;;;5.95;5.07;;;33.40;1.00;;;;;;4784994;29;20051;-83
2022/07/22 10:14:54;;;;;;;9.35;5.30;;;33.50;1.00;;;;;;4767837;29;20056;-82
2022/07/22 10:17:48;;;;;;;8.30;4.97;;;34.00;1.00;;;;;;4758983;29;20117;-84
2022/07/22 10:20:36;;;;;;;8.27;4.90;;;34.30;1.00;;;;;;4771431;29;20051;-82
2022/07/22 10:23:24;;;;;;;6.25;4.38;;;34.70;1.00;;;;;;4774265;29;20052;-83
2022/07/22 10:26:11;;;;;;;6.10;4.82;;;35.20;1.00;;;;;;4779214;29;20062;-84
2022/07/22 10:29:28;;;;;;;8.10;5.20;;;34.40;1.00;;;;;;4776565;29;20051;-83
2022/07/22 10:32:16;;;;;;;6.75;4.97;;;33.70;1.00;;;;;;4765771;30;20059;-81
2022/07/22 10:35:06;;;;;;;8.43;5.70;;;34.50;1.00;;;;;;4789570;30;20063;-83
2022/07/22 10:37:56;;;;;;;8.10;5.32;;;34.60;99.90;;;;;;4776959;30;20063;-84
2022/07/22 10:40:56;;;;;;;9.30;5.03;;;33.80;1.00;;;;;;4779184;29;20390;-84
2022/07/22 10:43:43;;;;;;;5.38;4.57;;;34.30;99.90;;;;;;4771594;30;20044;-85
2022/07/22 10:46:58;;;;;;;7.25;4.50;;;34.40;99.90;;;;;;4773711;29;20106;-81
2022/07/22 10:49:46;;;;;;;6.32;5.05;;;35.20;99.90;;;;;;4779316;30;20057;-81
2022/07/22 10:52:34;;;;;;;6.13;4.60;;;35.60;99.90;;;;;;4772582;30;20048;-80
2022/07/22 10:55:22;;;;;;;8.85;5.38;;;35.60;99.90;;;;;;4772420;30;20081;-82
2022/07/22 10:58:32;;;;;;;8.43;5.20;;;34.00;99.90;;;;;;4773847;29;20059;-82
2022/07/22 11:01:23;;;;;;;6.28;4.80;;;34.40;99.90;;;;;;4768960;30;20059;-83
2022/07/22 11:04:22;;;;;;;5.38;4.88;;;34.60;99.90;;;;;;4787338;30;20129;-81
2022/07/22 11:07:10;;;;;;;4.97;4.50;;;35.40;99.90;;;;;;4772771;30;20146;-84
2022/07/22 11:10:12;;;;;;;6.95;5.32;;;35.10;99.90;;;;;;4777544;30;20051;-83
2022/07/22 11:13:05;;;;;;;8.70;5.40;;;34.00;99.90;;;;;;4773661;29;20047;-83
2022/07/22 11:16:12;;;;;;;5.55;4.60;;;34.40;99.90;;;;;;4770101;29;20059;-81
2022/07/22 11:19:04;;;;;;;5.50;4.88;;;35.30;99.90;;;;;;4774165;30;20055;-84
2022/07/22 11:22:02;;;;;;;5.95;4.53;;;35.80;99.90;;;;;;4771542;30;20063;-82
2022/07/22 11:24:52;;;;;;;5.78;4.85;;;36.10;99.90;;;;;;4779311;29;20062;-83
2022/07/22 11:27:39;;;;;;;5.65;5.05;;;35.80;99.90;;;;;;4770733;30;20059;-83
2022/07/22 11:30:30;;;;;;;6.25;4.43;;;35.20;99.90;;;;;;4765782;29;20056;-82
2022/07/22 11:33:18;;;;;;;6.55;5.25;;;35.50;99.90;;;;;;4771029;30;20043;-84
2022/07/22 11:36:09;;;;;;;5.57;4.95;;;34.90;99.90;;;;;;4773311;29;20059;-82
2022/07/22 11:38:57;;;;;;;6.25;4.30;;;35.70;99.90;;;;;;4764960;29;20063;-80
2022/07/22 11:41:44;;;;;;;6.25;4.15;;;36.60;99.90;;;;;;4771756;30;20055;-81
2022/07/22 11:44:34;;;;;;;5.63;4.55;;;37.50;99.90;;;;;;4776971;29;20114;-82
2022/07/22 11:47:22;;;;;;;5.78;4.85;;;38.00;99.90;;;;;;4770479;30;20072;-82
2022/07/22 11:50:12;;;;;;;7.13;4.18;;;38.30;99.90;;;;;;4770422;30;20109;-82
2022/07/22 11:53:02;;;;;;;5.88;4.32;;;38.30;99.90;;;;;;4761294;30;20466;-81
2022/07/22 11:55:49;;;;;;;6.90;5.25;;;37.90;99.90;;;;;;4773133;29;20488;-82
2022/07/22 11:58:43;;;;;;;8.38;5.20;;;37.20;99.90;;;;;;4771822;30;20056;-83
2022/07/22 12:01:33;;;;;;;7.88;4.95;;;36.30;99.90;;;;;;4772354;30;20043;-83
2022/07/22 12:04:25;;;;;;;5.43;4.93;;;36.20;99.90;;;;;;4773231;30;20407;-81
2022/07/22 12:07:13;;;;;;;6.20;4.65;;;36.70;99.90;;;;;;4774342;29;20714;-81
2022/07/22 12:10:04;;;;;;;5.40;4.90;;;36.60;99.90;;;;;;4769370;30;20056;-81
2022/07/22 12:12:52;;;;;;;5.82;5.13;;;36.90;99.90;;;;;;4775939;29;20071;-85
2022/07/22 12:15:40;;;;;;;6.55;4.55;;;36.40;99.90;;;;;;4776015;30;20052;-81
2022/07/22 12:18:39;;;;;;;5.38;4.45;;;36.90;99.90;;;;;;4779717;29;20508;-79
2022/07/22 12:21:32;;;;;;;6.20;4.20;;;37.50;99.90;;;;;;4781583;29;20085;-81
2022/07/22 12:24:28;;;;;;;5.53;4.68;;;37.30;99.90;;;;;;4776250;29;20058;-82
2022/07/22 12:27:17;;;;;;;6.00;5.00;;;36.70;99.90;;;;;;4772271;29;20058;-82
2022/07/22 12:30:14;;;;;;;6.55;4.70;;;36.80;99.90;;;;;;4770435;29;20039;-81
2022/07/22 12:33:01;;;;;;;5.20;4.40;;;37.50;99.90;;;;;;4770917;30;20062;-81
2022/07/22 12:36:06;;;;;;;8.95;4.55;;;37.70;99.90;;;;;;4775664;30;20440;-81
2022/07/22 12:38:53;;;;;;;5.53;4.63;;;38.00;99.90;;;;;;4770144;30;20385;-85
2022/07/22 12:41:53;;;;;;;9.35;4.65;;;36.80;99.90;;;;;;4782676;30;20108;-82
2022/07/22 12:45:04;;;;;;;5.53;4.75;;;36.90;99.90;;;;;;4773950;30;20490;-81
2022/07/22 12:47:54;;;;;;;;;;;37.70;99.90;;;;;;4772984;30;20055;-82
2022/07/22 12:50:53;;;;;;;4.95;4.30;;;38.10;99.90;;;;;;4776274;30;19925;-82
2022/07/22 12:53:41;;;;;;;4.85;4.38;;;39.00;99.90;;;;;;4785478;29;20576;-82
2022/07/22 12:56:31;;;;;;;5.50;3.90;;;40.40;99.90;;;;;;4764932;30;20444;-82
2022/07/22 12:59:22;;;;;;;6.13;4.32;;;40.20;99.90;;;;;;4760004;29;20055;-83
2022/07/22 13:02:10;;;;;;;4.80;4.18;;;40.50;99.90;;;;;;4782800;29;20165;-84
2022/07/22 13:04:59;;;;;;;5.07;4.22;;;39.90;99.90;;;;;;4786397;29;20059;-83
2022/07/22 13:07:47;;;;;;;5.57;4.43;;;39.50;99.90;;;;;;4781336;30;20043;-83
2022/07/22 13:10:34;;;;;;;6.93;5.15;;;38.20;99.90;;;;;;4771867;30;20063;-82
2022/07/22 13:13:23;;;;;;;7.22;4.90;;;37.50;99.90;;;;;;4770948;30;20222;-83
2022/07/22 13:16:15;;;;;;;4.88;4.40;;;37.30;99.90;;;;;;4782863;30;20397;-83
2022/07/22 13:19:03;;;;;;;7.05;4.45;;;37.50;99.90;;;;;;4774189;29;20139;-82
2022/07/22 13:21:50;;;;;;;6.32;4.05;;;38.20;99.90;;;;;;4774090;30;20052;-82
2022/07/22 13:24:38;;;;;;;5.40;4.25;;;38.50;99.90;;;;;;4772805;30;20425;-82
2022/07/22 13:27:27;;;;;;;6.50;4.63;;;38.90;99.90;;;;;;4770265;30;20059;-83
2022/07/22 13:30:16;;;;;;;7.18;4.25;;;39.10;99.90;;;;;;4773651;30;20044;-83
2022/07/22 13:33:04;;;;;;;6.35;4.50;;;39.40;99.90;;;;;;4778004;29;20193;-83
2022/07/22 13:35:51;;;;;;;4.50;4.10;;;39.30;99.90;;;;;;4791030;30;20146;-82
2022/07/22 13:38:39;;;;;;;5.78;4.40;;;39.50;99.90;;;;;;4765025;30;20047;-81
2022/07/22 13:41:26;;;;;;;4.90;4.22;;;39.80;99.90;;;;;;4775662;30;20052;-81
2022/07/22 13:44:13;;;;;;;5.50;4.60;;;39.20;99.90;;;;;;4773832;30;20050;-82
2022/07/22 13:47:01;;;;;;;6.40;4.75;;;38.60;99.90;;;;;;4778926;30;20047;-81
2022/07/22 13:49:49;;;;;;;5.68;4.30;;;39.40;99.90;;;;;;4767382;30;20080;-82
2022/07/22 13:52:37;;;;;;;5.50;4.50;;;40.10;99.90;;;;;;4774551;30;20055;-82
2022/07/22 13:55:25;;;;;;;5.45;4.75;;;40.70;99.90;;;;;;4774902;29;20059;-81
2022/07/22 13:58:12;;;;;;;6.80;4.72;;;39.50;99.90;;;;;;4768573;29;20063;-82
2022/07/22 14:01:00;;;;;;;6.85;4.38;;;37.80;99.90;;;;;;4771857;30;20071;-84
2022/07/22 14:03:47;;;;;;;4.35;3.92;;;38.00;99.90;;;;;;4771272;29;20129;-83
2022/07/22 14:06:35;;;;;;;4.50;3.95;;;39.20;99.90;;;;;;4774754;30;20074;-84
2022/07/22 14:09:22;;;;;;;5.82;4.68;;;38.80;99.90;;;;;;4776103;30;20054;-82
2022/07/22 14:12:25;;;;;;;5.68;4.15;;;39.00;99.90;;;;;;4766865;29;20063;-83
2022/07/22 14:15:17;;;;;;;6.97;4.03;;;38.50;99.90;;;;;;4772058;30;20497;-83
2022/07/22 14:18:07;;;;;;;5.32;4.50;;;38.30;99.90;;;;;;4773024;30;20363;-84
2022/07/22 14:20:54;;;;;;;5.75;4.10;;;37.90;99.90;;;;;;4768994;30;20118;-83
2022/07/22 14:23:41;;;;;;;5.75;4.38;;;38.10;99.90;;;;;;4772420;29;20502;-84
2022/07/22 14:26:29;;;;;;;4.68;4.15;;;37.30;99.90;;;;;;4772586;29;20067;-83
2022/07/22 14:29:17;;;;;;;4.70;4.30;;;37.20;99.90;;;;;;4774371;29;20066;-82
2022/07/22 14:32:05;;;;;;;8.77;4.80;;;37.80;99.90;;;;;;4763007;30;20067;-81
2022/07/22 14:34:54;;;;;;;5.55;4.70;;;38.00;99.90;;;;;;4787888;29;20359;-81
2022/07/22 14:37:42;;;;;;;6.07;4.13;;;39.00;99.90;;;;;;4777201;30;20052;-82